首页
METAR-TAF:

METAR-TAF

机场 :

威斯巴登, 德国

纬度: 50-03N, 经度: 008-20E, 海拔: 140米

当前天气观测

该预报发布于57分钟前的04:56 UTC
静风
温度 2°C
湿度 87%
气压 1032 hPa
能见度10公里或以上
天空无云

METAR: ETOU 190456Z AUTO 00000KT 9999 CLR 02/00 A3047 RMK AO2 SLP328 T00201003

时间: 06:53 (05:53 UTC)

预报

该预报发布于13小时和2分钟前的16:51 UTC
预报有效从18日的 16点(UTC)到 19日的 18点(UTC)
风速9节,风向西转西南
能见度10公里或以上
多云层高于2000英尺
短暂存在
从 18日的 12点(UTC)到 18日的 16点(UTC)
风速10节,风向西,有时为15节阵风
能見度: 9000
小阵雨
成为
从 18日的 22点(UTC)到 18日的 23点(UTC)
风速6节,风向西转西北
能见度10公里或以上
散云层高于500英尺
多云层高于1500英尺
成为
从 19日的 12点(UTC)到 19日的 13点(UTC)
风速12节,风向北转西北
能見度: 9000
多云层高于2500英尺
小阵雨
成为
从 19日的 17点(UTC)到 19日的 18点(UTC)
风速6节,风向北转西北
能見度: 2004
多云层高于3000英尺

TAF: ETOU 181651Z 1816/1918 25009KT 9999 BKN020 620203 QNH3028INS TEMPO 1812/1816 26010G15KT 9000 -SHRA BECMG 1822/1823 30006KT 9999 SCT005 BKN015 620153 QNH3037INS BECMG 1912/1913 33012KT 9000 -SHRA BKN025 610303 QNH3050INS BECMG 1917/1918 34006KT 9999 NSW BKN030 620303 QNH3062INS TX07/1814Z TN00/1903Z LAST NO AMDS AFT 1816 NEXT 2004

超过4000个机场的气象观测和天气预报(METAR&TAF报告)。

可查询的气象台以黄色和红色小点在地图上表示。

将鼠标移到小点上方,可查看气象台名称。

然后点击查看天气观测和预报。

如需切换地图:点击带黑十字的绿色按钮放大地图;点击带横线的绿色按钮缩小地图;或者点击绿色箭头查看邻近地区的地图。


METAR-TAF: